createdAt,value
2022-08-01T00:01:32.387Z,2.50
2022-08-01T00:04:00.348Z,2.40
2022-08-01T00:06:28.311Z,2.40
2022-08-01T00:08:56.784Z,2.80
2022-08-01T00:11:24.899Z,2.83
2022-08-01T00:13:52.780Z,3.20
2022-08-01T00:16:23.562Z,2.63
2022-08-01T00:18:52.971Z,2.30
2022-08-01T00:21:20.918Z,2.30
2022-08-01T00:23:49.747Z,2.30
2022-08-01T00:26:17.664Z,2.20
2022-08-01T00:28:45.546Z,2.50
2022-08-01T00:31:13.614Z,2.53
2022-08-01T00:33:41.528Z,2.50
2022-08-01T00:36:10.810Z,3.10
2022-08-01T00:38:38.699Z,2.13
2022-08-01T00:41:06.693Z,2.10
2022-08-01T00:43:34.572Z,2.30
2022-08-01T00:46:02.501Z,2.10
2022-08-01T00:48:30.410Z,2.03
2022-08-01T00:50:58.538Z,2.17
2022-08-01T00:53:28.027Z,1.97
2022-08-01T00:56:16.017Z,1.80
2022-08-01T00:58:44.676Z,1.97
2022-08-01T01:01:14.055Z,1.47
2022-08-01T01:03:58.708Z,1.90
2022-08-01T01:06:40.762Z,1.40
2022-08-01T01:09:21.838Z,2.20
2022-08-01T01:11:59.500Z,1.60
2022-08-01T01:14:35.508Z,2.00
2022-08-01T01:17:08.263Z,1.50
2022-08-01T01:19:41.125Z,1.70
2022-08-01T01:22:39.013Z,1.63
2022-08-01T01:25:31.583Z,1.50
2022-08-01T01:28:08.477Z,1.03
2022-08-01T01:30:40.121Z,1.40
2022-08-01T01:33:12.013Z,1.73
2022-08-01T01:35:44.990Z,1.10
2022-08-01T01:38:17.631Z,1.13
2022-08-01T01:40:47.371Z,1.00
2022-08-01T01:43:17.016Z,1.73
2022-08-01T01:45:47.568Z,1.00
2022-08-01T01:48:17.360Z,1.10
2022-08-01T01:50:48.229Z,1.30
2022-08-01T01:53:19.522Z,1.37
2022-08-01T01:55:51.741Z,1.20
2022-08-01T01:58:21.529Z,1.33
2022-08-01T02:00:53.439Z,1.07
2022-08-01T02:03:22.759Z,1.33
2022-08-01T02:05:53.095Z,1.30
2022-08-01T02:08:22.109Z,1.30
2022-08-01T02:11:06.194Z,1.53
2022-08-01T02:13:36.440Z,1.30
2022-08-01T02:16:07.134Z,1.17
2022-08-01T02:21:17.039Z,1.40
2022-08-01T02:23:46.454Z,1.37
2022-08-01T02:26:18.636Z,1.17
2022-08-01T02:28:52.519Z,1.60
2022-08-01T02:31:24.570Z,1.30
2022-08-01T02:33:58.994Z,2.07
2022-08-01T02:36:31.869Z,1.20
2022-08-01T02:39:04.370Z,1.23
2022-08-01T02:41:33.550Z,1.47
2022-08-01T02:44:05.247Z,1.53
2022-08-01T02:46:39.997Z,2.07
2022-08-01T02:49:10.811Z,1.63
2022-08-01T02:51:41.253Z,2.20
2022-08-01T02:54:11.888Z,1.80
2022-08-01T02:56:41.908Z,1.80
2022-08-01T02:59:14.406Z,2.00
2022-08-01T03:01:46.327Z,1.73
2022-08-01T03:04:19.453Z,2.40
2022-08-01T03:06:48.860Z,1.80
2022-08-01T03:09:18.226Z,1.73
2022-08-01T03:11:47.810Z,1.60
2022-08-01T03:14:17.767Z,1.93
2022-08-01T03:16:48.327Z,2.17
2022-08-01T03:19:17.492Z,1.93
2022-08-01T03:21:46.328Z,1.90
2022-08-01T03:24:15.752Z,1.50
2022-08-01T03:26:45.106Z,2.20
2022-08-01T03:29:17.181Z,1.70
2022-08-01T03:31:48.089Z,2.17
2022-08-01T03:34:16.157Z,2.00
2022-08-01T03:36:49.902Z,1.90
2022-08-01T03:39:20.333Z,2.10
2022-08-01T03:41:56.664Z,2.00
2022-08-01T03:44:28.208Z,2.23
2022-08-01T03:47:02.653Z,1.90
2022-08-01T03:49:33.676Z,2.00
2022-08-01T03:52:04.684Z,2.13
2022-08-01T03:54:35.607Z,2.33
2022-08-01T03:57:04.299Z,2.40
2022-08-01T03:59:34.297Z,3.03
2022-08-01T04:02:05.464Z,2.27
2022-08-01T04:04:33.893Z,2.00
2022-08-01T04:07:05.182Z,2.13
2022-08-01T04:09:33.368Z,2.53
2022-08-01T04:12:01.991Z,1.87
2022-08-01T04:14:39.946Z,2.20
2022-08-01T04:17:09.303Z,2.07
2022-08-01T04:19:37.264Z,2.63
2022-08-01T04:22:05.886Z,2.00
2022-08-01T04:24:36.228Z,2.13
2022-08-01T04:27:10.554Z,2.07
2022-08-01T04:29:39.986Z,1.80
2022-08-01T04:32:12.531Z,2.40
2022-08-01T04:34:43.490Z,1.80
2022-08-01T04:37:13.262Z,2.40
2022-08-01T04:39:50.523Z,1.80
2022-08-01T04:42:28.940Z,1.73
2022-08-01T04:45:01.475Z,2.40
2022-08-01T04:47:32.191Z,2.10
2022-08-01T04:50:07.962Z,1.83
2022-08-01T04:52:36.985Z,1.60
2022-08-01T04:55:07.043Z,1.80
2022-08-01T04:57:37.949Z,2.40
2022-08-01T05:00:07.958Z,1.97
2022-08-01T05:02:37.206Z,1.80
2022-08-01T05:05:06.977Z,1.70
2022-08-01T05:07:45.659Z,1.47
2022-08-01T05:10:13.953Z,1.77
2022-08-01T05:12:41.914Z,1.13
2022-08-01T05:15:15.202Z,1.90
2022-08-01T05:17:45.070Z,2.33
2022-08-01T05:20:13.606Z,1.30
2022-08-01T05:22:41.666Z,1.40
2022-08-01T05:25:09.830Z,1.67
2022-08-01T05:27:40.574Z,1.80
2022-08-01T05:30:09.999Z,1.20
2022-08-01T05:32:39.123Z,1.80
2022-08-01T05:35:10.483Z,1.60
2022-08-01T05:37:38.386Z,1.40
2022-08-01T05:40:07.952Z,1.80
2022-08-01T05:42:35.905Z,1.90
2022-08-01T05:45:05.923Z,1.97
2022-08-01T05:47:33.818Z,1.40
2022-08-01T05:50:01.764Z,2.00
2022-08-01T05:52:31.882Z,2.10
2022-08-01T05:55:00.853Z,1.50
2022-08-01T05:57:28.986Z,1.90
2022-08-01T05:59:57.563Z,1.80
2022-08-01T06:02:25.679Z,1.60
2022-08-01T06:04:53.793Z,1.70
2022-08-01T06:07:21.920Z,3.40
2022-08-01T06:09:51.338Z,2.00
2022-08-01T06:12:19.803Z,2.13
2022-08-01T06:15:14.405Z,2.40
2022-08-01T06:17:44.867Z,2.10
2022-08-01T06:20:18.795Z,2.57
2022-08-01T06:22:52.446Z,2.40
2022-08-01T06:25:22.426Z,1.70
2022-08-01T06:27:50.826Z,1.50
2022-08-01T06:30:18.843Z,2.13
2022-08-01T06:32:48.466Z,2.40
2022-08-01T06:35:16.661Z,1.77
2022-08-01T06:37:45.835Z,2.40
2022-08-01T06:40:17.208Z,1.90
2022-08-01T06:42:50.702Z,2.50
2022-08-01T06:45:26.937Z,2.00
2022-08-01T06:53:08.483Z,1.63
2022-08-01T06:55:44.750Z,1.93
2022-08-01T06:58:14.153Z,2.50
2022-08-01T07:00:43.317Z,2.10
2022-08-01T07:03:11.406Z,2.67
2022-08-01T07:05:39.491Z,2.00
2022-08-01T07:08:07.788Z,1.90
2022-08-01T07:10:35.731Z,2.40
2022-08-01T07:13:03.863Z,2.33
2022-08-01T07:15:33.129Z,2.53
2022-08-01T07:18:04.872Z,1.97
2022-08-01T07:20:37.659Z,1.87
2022-08-01T07:23:09.362Z,2.00
2022-08-01T07:25:40.903Z,1.63
2022-08-01T07:28:18.666Z,2.30
2022-08-01T07:30:48.158Z,2.00
2022-08-01T07:33:16.093Z,1.83
2022-08-01T07:35:44.688Z,1.77
2022-08-01T07:38:12.978Z,2.13
2022-08-01T07:40:40.969Z,2.07
2022-08-01T07:43:08.874Z,2.17
2022-08-01T07:45:36.959Z,2.20
2022-08-01T07:48:08.235Z,2.03
2022-08-01T07:50:37.128Z,1.90
2022-08-01T07:53:05.494Z,1.80
2022-08-01T07:55:33.553Z,1.90
2022-08-01T07:58:01.435Z,1.97
2022-08-01T08:00:29.514Z,2.30
2022-08-01T08:02:59.787Z,1.67
2022-08-01T08:05:51.609Z,1.87
2022-08-01T08:08:19.100Z,2.00
2022-08-01T08:10:49.839Z,2.30
2022-08-01T08:13:18.720Z,2.00
2022-08-01T08:15:48.287Z,1.30
2022-08-01T08:18:16.706Z,1.83
2022-08-01T08:20:46.080Z,1.20
2022-08-01T08:23:41.344Z,1.30
2022-08-01T08:26:11.589Z,1.13
2022-08-01T08:28:40.421Z,1.53
2022-08-01T08:31:25.725Z,1.03
2022-08-01T08:33:56.844Z,1.10
2022-08-01T08:36:31.105Z,1.13
2022-08-01T08:39:01.393Z,1.43
2022-08-01T08:41:37.557Z,1.30
2022-08-01T08:44:09.953Z,1.20
2022-08-01T08:46:43.521Z,1.00
2022-08-01T08:49:12.864Z,1.17
2022-08-01T08:51:44.086Z,1.47
2022-08-01T08:54:14.609Z,1.40
2022-08-01T08:56:43.851Z,1.40
2022-08-01T08:59:15.195Z,1.17
2022-08-01T09:01:44.306Z,1.30
2022-08-01T09:04:13.179Z,1.07
2022-08-01T09:06:42.814Z,1.17
2022-08-01T09:09:12.115Z,1.03
2022-08-01T09:11:40.498Z,1.10
2022-08-01T09:14:11.633Z,1.53
2022-08-01T09:16:48.005Z,1.20
2022-08-01T09:19:39.500Z,0.97
2022-08-01T09:22:10.166Z,0.70
2022-08-01T09:24:38.767Z,0.80
2022-08-01T09:27:20.996Z,0.70
2022-08-01T09:30:00.662Z,1.00
2022-08-01T09:32:36.080Z,0.80
2022-08-01T09:35:30.771Z,0.97
2022-08-01T09:38:21.806Z,1.00
2022-08-01T09:40:53.250Z,1.10
2022-08-01T09:43:22.687Z,1.07
2022-08-01T09:45:52.911Z,1.10
2022-08-01T09:48:22.529Z,1.20
2022-08-01T09:51:59.907Z,1.40
2022-08-01T09:55:04.313Z,0.80
2022-08-01T09:59:19.816Z,0.87
2022-08-01T10:01:52.815Z,0.80
2022-08-01T10:04:23.564Z,0.80
2022-08-01T10:06:55.511Z,1.10
2022-08-01T10:09:39.633Z,0.87
2022-08-01T10:12:15.725Z,0.80
2022-08-01T10:14:51.268Z,1.10
2022-08-01T10:17:26.204Z,1.47
2022-08-01T10:20:30.648Z,1.00
2022-08-01T10:23:02.909Z,1.23
2022-08-01T10:25:42.077Z,1.03
2022-08-01T10:28:17.987Z,1.20
2022-08-01T10:30:49.498Z,1.13
2022-08-01T10:33:50.377Z,1.13
2022-08-01T10:36:08.846Z,0.70
2022-08-01T10:38:38.019Z,1.17
2022-08-01T10:41:08.635Z,1.03
2022-08-01T10:43:37.340Z,0.83
2022-08-01T10:46:07.418Z,0.50
2022-08-01T10:48:45.213Z,0.40
2022-08-01T10:51:18.490Z,0.50
2022-08-01T10:53:54.296Z,0.30
2022-08-01T10:56:27.235Z,0.40
2022-08-01T10:59:06.080Z,0.30
2022-08-01T11:01:37.803Z,0.30
2022-08-01T11:04:16.396Z,0.40
2022-08-01T11:07:04.360Z,0.30
2022-08-01T11:09:41.039Z,0.30
2022-08-01T11:12:13.277Z,0.30
2022-08-01T11:15:29.438Z,0.30
2022-08-01T11:18:01.674Z,0.30
2022-08-01T11:20:32.196Z,0.20
2022-08-01T11:23:35.978Z,0.50
2022-08-01T11:26:28.862Z,0.20
2022-08-01T11:29:20.976Z,0.20
2022-08-01T11:31:51.113Z,0.40
2022-08-01T11:34:20.414Z,0.20
2022-08-01T11:36:59.701Z,0.20
2022-08-01T11:39:28.241Z,0.20
2022-08-01T11:42:17.805Z,0.30
2022-08-01T11:44:52.106Z,0.30
2022-08-01T11:47:21.457Z,0.30
2022-08-01T11:49:56.263Z,0.20
2022-08-01T11:52:29.942Z,0.20
2022-08-01T11:54:59.742Z,0.30
2022-08-01T11:57:34.504Z,0.20
2022-08-01T12:00:08.834Z,0.30
2022-08-01T12:02:43.171Z,0.40
2022-08-01T12:05:17.463Z,0.30
2022-08-01T12:07:47.388Z,0.30
2022-08-01T12:10:17.009Z,0.30
2022-08-01T12:12:46.622Z,0.23
2022-08-01T12:15:15.224Z,0.37
2022-08-01T12:17:57.598Z,0.20
2022-08-01T12:20:31.257Z,0.40
2022-08-01T12:23:01.011Z,0.50
2022-08-01T12:25:29.656Z,0.30
2022-08-01T12:28:02.101Z,0.30
2022-08-01T12:30:31.764Z,0.30
2022-08-01T12:33:00.145Z,0.37
2022-08-01T12:35:31.563Z,0.30
2022-08-01T12:38:02.104Z,0.20
2022-08-01T12:40:31.967Z,0.30
2022-08-01T12:43:03.062Z,0.33
2022-08-01T12:45:34.906Z,0.20
2022-08-01T12:48:03.983Z,0.30
2022-08-01T12:50:34.039Z,0.30
2022-08-01T12:53:03.915Z,0.40
2022-08-01T12:55:38.221Z,0.33
2022-08-01T12:58:25.970Z,0.23
2022-08-01T13:01:05.866Z,0.30
2022-08-01T13:03:34.284Z,0.20
2022-08-01T13:06:11.770Z,0.30
2022-08-01T13:08:39.893Z,0.40
2022-08-01T13:11:10.776Z,0.40
2022-08-01T13:13:41.402Z,0.30
2022-08-01T13:16:15.485Z,0.27
2022-08-01T13:18:51.546Z,0.20
2022-08-01T13:21:22.346Z,0.20
2022-08-01T13:24:06.143Z,0.93
2022-08-01T13:26:45.789Z,0.33
2022-08-01T13:29:15.772Z,0.50
2022-08-01T13:31:44.129Z,0.30
2022-08-01T13:34:13.403Z,0.30
2022-08-01T13:36:48.575Z,0.30
2022-08-01T13:39:34.964Z,0.50
2022-08-01T13:42:03.684Z,0.50
2022-08-01T13:44:32.300Z,0.40
2022-08-01T13:47:00.229Z,0.40
2022-08-01T13:49:37.200Z,0.50
2022-08-01T13:52:08.257Z,0.40
2022-08-01T13:54:37.245Z,0.50
2022-08-01T13:57:05.492Z,0.37
2022-08-01T13:59:33.681Z,0.30
2022-08-01T14:02:01.663Z,0.60
2022-08-01T14:04:29.753Z,0.50
2022-08-01T14:06:57.660Z,0.40
2022-08-01T14:09:32.546Z,0.60
2022-08-01T14:12:00.670Z,0.80
2022-08-01T14:14:28.654Z,0.40
2022-08-01T14:16:56.594Z,0.53
2022-08-01T14:19:37.534Z,0.40
2022-08-01T14:22:07.905Z,0.63
2022-08-01T14:24:37.503Z,0.40
2022-08-01T14:27:06.969Z,0.67
2022-08-01T14:30:02.217Z,0.70
2022-08-01T14:32:28.894Z,0.40
2022-08-01T14:34:57.576Z,0.40
2022-08-01T14:37:29.220Z,0.43
2022-08-01T14:40:05.407Z,0.30
2022-08-01T14:42:35.654Z,0.40
2022-08-01T14:45:04.514Z,0.40
2022-08-01T14:47:32.467Z,0.30
2022-08-01T14:50:00.404Z,0.40
2022-08-01T14:52:28.280Z,0.37
2022-08-01T14:54:56.236Z,0.30
2022-08-01T14:57:25.576Z,0.40
2022-08-01T14:59:53.730Z,0.47
2022-08-01T15:02:21.672Z,0.20
2022-08-01T15:04:50.388Z,0.30
2022-08-01T15:07:19.607Z,0.37
2022-08-01T15:09:47.694Z,0.20
2022-08-01T15:12:15.706Z,0.30
2022-08-01T15:14:51.313Z,0.30
2022-08-01T15:17:20.609Z,0.40
2022-08-01T15:19:51.611Z,0.27
2022-08-01T15:22:19.741Z,0.30
2022-08-01T15:24:47.698Z,0.47
2022-08-01T15:27:16.072Z,0.50
2022-08-01T15:29:46.173Z,0.87
2022-08-01T15:32:14.153Z,0.40
2022-08-01T15:34:42.967Z,0.40
2022-08-01T15:37:11.502Z,0.30
2022-08-01T15:39:40.014Z,0.40
2022-08-01T15:42:10.913Z,0.30
2022-08-01T15:44:39.098Z,0.40
2022-08-01T15:47:09.224Z,0.40
2022-08-01T15:49:38.243Z,0.30
2022-08-01T15:52:07.219Z,0.30
2022-08-01T15:54:49.595Z,0.30
2022-08-01T15:57:17.643Z,0.30
2022-08-01T15:59:45.655Z,0.30
2022-08-01T16:02:15.503Z,0.40
2022-08-01T16:04:43.671Z,0.30
2022-08-01T16:07:12.914Z,0.20
2022-08-01T16:09:40.982Z,0.20
2022-08-01T16:12:10.185Z,0.30
2022-08-01T16:14:38.544Z,0.23
2022-08-01T16:17:06.503Z,0.30
2022-08-01T16:19:35.826Z,0.20
2022-08-01T16:22:04.143Z,0.20
2022-08-01T16:24:32.424Z,0.20
2022-08-01T16:27:00.360Z,0.20
2022-08-01T16:29:30.760Z,0.20
2022-08-01T16:32:00.934Z,0.20
2022-08-01T16:34:46.984Z,0.20
2022-08-01T16:37:15.774Z,0.20
2022-08-01T16:39:44.746Z,0.20
2022-08-01T16:42:13.015Z,0.30
2022-08-01T16:44:41.490Z,0.30
2022-08-01T16:47:09.640Z,0.50
2022-08-01T16:49:38.253Z,0.43
2022-08-01T16:52:08.722Z,0.33
2022-08-01T16:54:37.132Z,0.50
2022-08-01T16:57:08.676Z,0.50
2022-08-01T16:59:41.035Z,0.60
2022-08-01T17:02:10.172Z,0.80
2022-08-01T17:04:38.213Z,0.40
2022-08-01T17:07:07.862Z,0.60
2022-08-01T17:09:38.676Z,0.60
2022-08-01T17:12:11.878Z,0.93
2022-08-01T17:14:40.645Z,0.80
2022-08-01T17:17:09.679Z,0.53
2022-08-01T17:19:37.861Z,0.47
2022-08-01T17:22:07.291Z,0.50
2022-08-01T17:24:35.320Z,0.40
2022-08-01T17:27:03.709Z,0.40
2022-08-01T17:29:40.756Z,0.40
2022-08-01T17:32:12.380Z,0.40
2022-08-01T17:34:40.299Z,0.30
2022-08-01T17:37:10.706Z,0.40
2022-08-01T17:39:40.150Z,0.40
2022-08-01T17:42:08.963Z,0.60
2022-08-01T17:44:36.917Z,0.60
2022-08-01T17:47:08.503Z,0.50
2022-08-01T17:49:54.238Z,0.40
2022-08-01T17:52:29.433Z,0.60
2022-08-01T17:54:58.000Z,0.53
2022-08-01T17:57:26.595Z,0.50
2022-08-01T17:59:54.538Z,0.60
2022-08-01T18:02:22.788Z,0.63
2022-08-01T18:04:52.244Z,0.80
2022-08-01T18:07:20.663Z,0.40
2022-08-01T18:09:49.951Z,0.73
2022-08-01T18:12:18.727Z,0.70
2022-08-01T18:14:47.127Z,0.70
2022-08-01T18:17:15.298Z,0.53
2022-08-01T18:19:46.763Z,1.80
2022-08-01T18:22:31.369Z,1.70
2022-08-01T18:25:08.433Z,1.70
2022-08-01T18:28:16.423Z,0.73
2022-08-01T18:30:25.783Z,0.60
2022-08-01T18:32:54.770Z,0.80
2022-08-01T18:35:25.631Z,0.70
2022-08-01T18:38:11.290Z,0.50
2022-08-01T18:40:41.066Z,0.80
2022-08-01T18:43:09.134Z,0.70
2022-08-01T18:45:42.303Z,0.70
2022-08-01T18:48:10.845Z,0.70
2022-08-01T18:50:39.422Z,0.67
2022-08-01T18:53:08.225Z,0.90
2022-08-01T18:55:36.221Z,0.80
2022-08-01T18:58:05.607Z,0.63
2022-08-01T19:00:33.552Z,0.77
2022-08-01T19:03:01.539Z,0.90
2022-08-01T19:05:34.812Z,1.80
2022-08-01T19:08:07.307Z,1.17
2022-08-01T19:10:36.104Z,1.30
2022-08-01T19:13:05.659Z,1.53
2022-08-01T19:15:33.763Z,1.33
2022-08-01T19:18:03.223Z,1.00
2022-08-01T19:20:31.484Z,1.07
2022-08-01T19:22:59.701Z,0.67
2022-08-01T19:25:28.026Z,0.93
2022-08-01T19:27:57.298Z,0.97
2022-08-01T19:30:27.230Z,0.97
2022-08-01T19:32:56.837Z,1.00
2022-08-01T19:35:25.659Z,0.80
2022-08-01T19:37:54.303Z,1.00
2022-08-01T19:40:26.095Z,0.90
2022-08-01T19:42:56.730Z,0.77
2022-08-01T19:45:30.476Z,0.90
2022-08-01T19:47:59.812Z,1.10
2022-08-01T19:50:28.109Z,0.93
2022-08-01T19:52:57.364Z,0.70
2022-08-01T19:55:26.206Z,1.00
2022-08-01T19:58:17.388Z,0.90
2022-08-01T20:00:43.925Z,1.03
2022-08-01T20:03:15.912Z,0.80
2022-08-01T20:05:44.876Z,0.90
2022-08-01T20:08:13.438Z,0.80
2022-08-01T20:10:41.889Z,0.83
2022-08-01T20:13:11.410Z,0.80
2022-08-01T20:15:39.831Z,1.03
2022-08-01T20:18:09.176Z,1.13
2022-08-01T20:20:39.167Z,1.00
2022-08-01T20:23:17.910Z,0.93
2022-08-01T20:25:49.399Z,0.77
2022-08-01T20:28:23.596Z,1.20
2022-08-01T20:30:55.540Z,0.90
2022-08-01T20:33:25.391Z,1.00
2022-08-01T20:35:56.040Z,0.77
2022-08-01T20:38:32.563Z,0.90
2022-08-01T20:41:02.750Z,0.87
2022-08-01T20:43:30.863Z,1.10
2022-08-01T20:46:00.184Z,1.00
2022-08-01T20:48:31.231Z,0.93
2022-08-01T20:51:16.507Z,0.97
2022-08-01T20:53:48.972Z,1.07
2022-08-01T20:56:18.506Z,0.80
2022-08-01T20:59:01.565Z,0.70
2022-08-01T21:01:33.998Z,0.90
2022-08-01T21:04:26.801Z,1.27
2022-08-01T21:07:22.984Z,1.00
2022-08-01T21:09:59.726Z,0.80
2022-08-01T21:12:31.912Z,1.00
2022-08-01T21:15:02.936Z,0.80
2022-08-01T21:17:41.318Z,0.60
2022-08-01T21:20:14.311Z,1.00
2022-08-01T21:22:52.754Z,0.83
2022-08-01T21:25:27.113Z,0.70
2022-08-01T21:27:56.332Z,1.37
2022-08-01T21:30:26.279Z,0.90
2022-08-01T21:32:55.097Z,0.97
2022-08-01T21:35:29.381Z,0.97
2022-08-01T21:37:58.951Z,0.90
2022-08-01T21:40:27.169Z,0.70
2022-08-01T21:42:55.760Z,1.03
2022-08-01T21:45:25.383Z,0.97
2022-08-01T21:47:54.011Z,0.70
2022-08-01T21:50:24.423Z,0.90
2022-08-01T21:53:07.553Z,1.20
2022-08-01T21:55:52.370Z,1.10
2022-08-01T21:58:40.616Z,0.97
2022-08-01T22:01:11.676Z,1.20
2022-08-01T22:03:45.961Z,0.80
2022-08-01T22:06:16.954Z,1.10
2022-08-01T22:08:50.927Z,1.10
2022-08-01T22:11:33.219Z,0.90
2022-08-01T22:14:56.595Z,0.60
2022-08-01T22:18:07.072Z,0.80
2022-08-01T22:24:48.832Z,0.60
2022-08-01T22:28:05.909Z,0.97
2022-08-01T22:30:19.457Z,0.83
2022-08-01T22:33:08.089Z,0.93
2022-08-01T22:35:40.003Z,0.60
2022-08-01T22:38:09.736Z,0.80
2022-08-01T22:40:46.890Z,0.87
2022-08-01T22:43:23.921Z,1.10
2022-08-01T22:46:00.601Z,1.03
2022-08-01T22:48:38.541Z,0.90
2022-08-01T22:51:10.271Z,0.80
2022-08-01T22:54:41.210Z,0.90
2022-08-01T22:58:45.618Z,0.80
2022-08-01T23:01:21.859Z,0.80
2022-08-01T23:03:52.088Z,0.70
2022-08-01T23:06:26.780Z,1.00
2022-08-01T23:08:56.582Z,1.00
2022-08-01T23:11:24.851Z,1.20
2022-08-01T23:13:53.513Z,0.80
2022-08-01T23:16:23.336Z,1.10
2022-08-01T23:18:55.100Z,0.80
2022-08-01T23:21:24.285Z,0.77
2022-08-01T23:23:52.774Z,1.17
2022-08-01T23:26:22.746Z,0.90
2022-08-01T23:28:51.823Z,1.00
2022-08-01T23:31:22.975Z,2.50
2022-08-01T23:34:10.835Z,1.00
2022-08-01T23:36:39.990Z,0.70
2022-08-01T23:39:07.999Z,0.70
2022-08-01T23:41:57.172Z,0.70
2022-08-01T23:44:24.139Z,0.77
2022-08-01T23:46:52.182Z,0.70
2022-08-01T23:49:21.677Z,0.57
2022-08-01T23:51:49.935Z,0.67
2022-08-01T23:54:18.744Z,0.67
2022-08-01T23:56:46.913Z,0.60
2022-08-01T23:59:15.829Z,0.70
